createdAt,value
2023-04-16T00:00:49.897Z,6.90
2023-04-16T00:02:06.354Z,6.60
2023-04-16T00:03:08.304Z,6.90
2023-04-16T00:04:10.043Z,6.80
2023-04-16T00:05:11.715Z,7.10
2023-04-16T00:06:13.253Z,6.30
2023-04-16T00:07:14.774Z,6.30
2023-04-16T00:08:16.301Z,7.50
2023-04-16T00:09:17.821Z,9.40
2023-04-16T00:10:19.353Z,7.90
2023-04-16T00:11:21.491Z,7.50
2023-04-16T00:12:23.010Z,9.00
2023-04-16T00:13:26.691Z,9.10
2023-04-16T00:14:29.092Z,8.20
2023-04-16T00:15:30.618Z,10.10
2023-04-16T00:16:32.639Z,9.20
2023-04-16T00:17:34.326Z,10.80
2023-04-16T00:18:35.970Z,9.80
2023-04-16T00:19:38.219Z,12.10
2023-04-16T00:20:39.668Z,12.90
2023-04-16T00:21:41.296Z,17.00
2023-04-16T00:22:42.978Z,16.20
2023-04-16T00:23:44.907Z,17.00
2023-04-16T00:24:46.307Z,20.50
2023-04-16T00:25:47.795Z,22.30
2023-04-16T00:26:49.505Z,19.80
2023-04-16T00:27:51.197Z,18.60
2023-04-16T00:28:52.656Z,20.10
2023-04-16T00:29:54.183Z,22.00
2023-04-16T00:30:55.809Z,18.90
2023-04-16T00:31:57.433Z,19.50
2023-04-16T00:32:59.683Z,19.20
2023-04-16T00:34:01.316Z,19.80
2023-04-16T00:35:03.126Z,18.60
2023-04-16T00:36:04.979Z,18.50
2023-04-16T00:37:06.557Z,16.10
2023-04-16T00:38:08.075Z,17.20
2023-04-16T00:39:09.858Z,11.90
2023-04-16T00:40:11.492Z,11.40
2023-04-16T00:41:13.114Z,9.60
2023-04-16T00:42:15.039Z,8.80
2023-04-16T00:43:24.892Z,8.70
2023-04-16T00:44:26.372Z,6.90
2023-04-16T00:45:28.874Z,6.70
2023-04-16T00:46:31.169Z,6.70
2023-04-16T00:47:33.248Z,6.00
2023-04-16T00:48:38.411Z,6.40
2023-04-16T00:49:40.377Z,5.80
2023-04-16T00:50:42.145Z,6.70
2023-04-16T00:51:43.718Z,6.10
2023-04-16T00:52:47.725Z,7.40
2023-04-16T00:53:50.324Z,6.30
2023-04-16T00:54:53.386Z,6.10
2023-04-16T00:55:55.592Z,6.20
2023-04-16T00:56:58.916Z,6.30
2023-04-16T00:58:00.396Z,6.60
2023-04-16T00:59:03.084Z,6.60
2023-04-16T01:00:05.652Z,7.40
2023-04-16T01:01:07.257Z,6.40
2023-04-16T01:02:08.960Z,7.90
2023-04-16T01:03:10.885Z,7.00
2023-04-16T01:04:12.830Z,7.40
2023-04-16T01:05:14.888Z,9.00
2023-04-16T01:06:17.801Z,8.30
2023-04-16T01:07:19.513Z,8.70
2023-04-16T01:08:21.446Z,8.70
2023-04-16T01:09:22.937Z,10.20
2023-04-16T01:10:24.422Z,11.90
2023-04-16T01:11:25.846Z,11.50
2023-04-16T01:12:27.269Z,9.80
2023-04-16T01:13:29.073Z,9.90
2023-04-16T01:14:35.611Z,9.30
2023-04-16T01:15:37.781Z,9.80
2023-04-16T01:16:39.338Z,9.30
2023-04-16T01:17:41.330Z,8.60
2023-04-16T01:18:43.127Z,10.20
2023-04-16T01:19:44.603Z,9.80
2023-04-16T01:20:47.764Z,9.80
2023-04-16T01:21:49.317Z,10.50
2023-04-16T01:22:50.807Z,10.00
2023-04-16T01:23:52.295Z,9.10
2023-04-16T01:24:53.790Z,9.30
2023-04-16T01:25:55.409Z,9.40
2023-04-16T01:26:58.588Z,10.50
2023-04-16T01:28:00.201Z,9.70
2023-04-16T01:29:02.345Z,10.20
2023-04-16T01:30:04.445Z,9.40
2023-04-16T01:33:10.504Z,9.00
2023-04-16T01:34:12.036Z,8.50
2023-04-16T01:35:13.571Z,8.70
2023-04-16T01:36:15.436Z,11.30
2023-04-16T01:37:16.999Z,8.50
2023-04-16T01:38:18.682Z,8.30
2023-04-16T01:39:20.397Z,9.10
2023-04-16T01:40:22.894Z,8.20
2023-04-16T01:41:24.424Z,7.80
2023-04-16T01:42:26.223Z,7.80
2023-04-16T01:43:27.782Z,7.50
2023-04-16T01:44:30.253Z,7.30
2023-04-16T01:45:33.799Z,6.70
2023-04-16T01:46:37.083Z,7.30
2023-04-16T01:47:38.749Z,8.30
2023-04-16T01:48:40.522Z,7.90
2023-04-16T01:49:44.914Z,8.20
2023-04-16T01:50:46.383Z,8.10
2023-04-16T01:51:47.846Z,8.30
2023-04-16T01:52:49.463Z,8.80
2023-04-16T01:53:51.079Z,9.60
2023-04-16T01:54:52.627Z,8.30
2023-04-16T01:55:54.116Z,7.30
2023-04-16T01:56:56.467Z,8.40
2023-04-16T01:57:57.951Z,7.70
2023-04-16T01:59:00.640Z,8.00
2023-04-16T02:00:08.190Z,7.60
2023-04-16T02:01:20.076Z,7.40
2023-04-16T02:02:27.442Z,7.20
2023-04-16T02:03:30.683Z,7.90
2023-04-16T02:04:32.810Z,7.60
2023-04-16T02:05:34.495Z,7.40
2023-04-16T02:06:36.024Z,7.90
2023-04-16T02:07:37.525Z,7.10
2023-04-16T02:08:39.034Z,7.70
2023-04-16T02:09:40.877Z,8.40
2023-04-16T02:10:46.170Z,7.90
2023-04-16T02:11:47.815Z,7.60
2023-04-16T02:12:49.417Z,7.90
2023-04-16T02:13:51.118Z,8.00
2023-04-16T02:14:53.661Z,8.10
2023-04-16T02:15:55.414Z,8.10
2023-04-16T02:17:20.563Z,7.30
2023-04-16T02:18:25.564Z,8.00
2023-04-16T02:19:28.303Z,8.50
2023-04-16T02:20:30.257Z,8.30
2023-04-16T02:21:34.464Z,8.10
2023-04-16T02:22:36.427Z,8.70
2023-04-16T02:23:40.441Z,8.30
2023-04-16T02:24:42.409Z,10.00
2023-04-16T02:25:45.960Z,9.00
2023-04-16T02:26:47.513Z,7.90
2023-04-16T02:27:50.528Z,9.20
2023-04-16T02:29:03.620Z,8.40
2023-04-16T02:30:11.822Z,8.90
2023-04-16T02:31:18.909Z,9.50
2023-04-16T02:32:21.702Z,8.40
2023-04-16T02:33:25.753Z,9.40
2023-04-16T02:34:33.012Z,9.10
2023-04-16T02:35:35.490Z,9.10
2023-04-16T02:36:37.543Z,9.10
2023-04-16T02:37:40.205Z,10.00
2023-04-16T02:38:41.736Z,9.70
2023-04-16T02:39:44.436Z,9.50
2023-04-16T02:40:46.005Z,8.70
2023-04-16T02:41:47.564Z,9.30
2023-04-16T02:42:49.078Z,9.30
2023-04-16T02:43:50.584Z,9.40
2023-04-16T02:44:52.144Z,9.80
2023-04-16T02:45:53.730Z,9.20
2023-04-16T02:46:55.206Z,9.30
2023-04-16T02:47:56.740Z,9.10
2023-04-16T02:48:58.195Z,8.60
2023-04-16T02:49:59.748Z,8.70
2023-04-16T02:51:01.282Z,8.50
2023-04-16T02:52:03.403Z,8.90
2023-04-16T02:53:06.010Z,10.00
2023-04-16T02:54:07.454Z,9.10
2023-04-16T02:55:10.227Z,9.30
2023-04-16T02:56:12.389Z,9.60
2023-04-16T02:57:14.170Z,9.80
2023-04-16T02:58:15.903Z,9.20
2023-04-16T02:59:17.521Z,9.50
2023-04-16T03:00:19.108Z,9.00
2023-04-16T03:01:20.529Z,10.30
2023-04-16T03:02:22.209Z,10.30
2023-04-16T03:03:23.836Z,10.30
2023-04-16T03:04:25.532Z,10.40
2023-04-16T03:05:27.047Z,11.10
2023-04-16T03:06:28.520Z,10.10
2023-04-16T03:07:30.144Z,10.40
2023-04-16T03:08:31.584Z,10.30
2023-04-16T03:09:33.084Z,9.80
2023-04-16T03:10:35.676Z,11.40
2023-04-16T03:11:37.142Z,10.30
2023-04-16T03:12:39.554Z,11.00
2023-04-16T03:13:41.531Z,10.90
2023-04-16T03:14:43.317Z,11.40
2023-04-16T03:15:49.194Z,10.80
2023-04-16T03:16:50.677Z,11.90
2023-04-16T03:17:53.266Z,10.90
2023-04-16T03:18:54.703Z,10.80
2023-04-16T03:19:56.402Z,10.60
2023-04-16T03:20:57.845Z,10.60
2023-04-16T03:21:59.297Z,11.80
2023-04-16T03:23:00.871Z,12.00
2023-04-16T03:24:02.926Z,11.80
2023-04-16T03:25:04.699Z,12.20
2023-04-16T03:26:06.296Z,12.50
2023-04-16T03:27:07.992Z,12.10
2023-04-16T03:28:10.074Z,13.10
2023-04-16T03:29:12.108Z,13.40
2023-04-16T03:30:14.821Z,14.40
2023-04-16T03:31:16.444Z,14.60
2023-04-16T03:32:18.478Z,15.00
2023-04-16T03:33:20.277Z,15.00
2023-04-16T03:34:21.963Z,14.50
2023-04-16T03:35:23.473Z,16.50
2023-04-16T03:36:26.611Z,14.00
2023-04-16T03:37:28.175Z,15.40
2023-04-16T03:38:30.283Z,15.90
2023-04-16T03:39:33.670Z,15.00
2023-04-16T03:40:35.343Z,14.70
2023-04-16T03:41:36.851Z,14.70
2023-04-16T03:42:38.329Z,14.90
2023-04-16T03:43:40.529Z,13.50
2023-04-16T03:44:42.562Z,13.00
2023-04-16T03:45:45.241Z,13.00
2023-04-16T03:46:47.384Z,13.20
2023-04-16T03:47:51.933Z,12.60
2023-04-16T03:48:55.169Z,12.00
2023-04-16T03:49:56.948Z,12.30
2023-04-16T03:50:58.617Z,13.60
2023-04-16T03:52:01.006Z,11.50
2023-04-16T03:53:02.541Z,12.90
2023-04-16T03:54:04.606Z,12.30
2023-04-16T03:55:07.307Z,11.80
2023-04-16T03:56:09.348Z,11.10
2023-04-16T03:57:10.768Z,11.00
2023-04-16T03:58:12.262Z,10.80
2023-04-16T03:59:13.946Z,12.40
2023-04-16T04:00:15.865Z,11.20
2023-04-16T04:01:25.077Z,10.90
2023-04-16T04:02:27.314Z,11.40
2023-04-16T04:03:29.474Z,11.00
2023-04-16T04:04:31.475Z,11.00
2023-04-16T04:05:40.426Z,10.90
2023-04-16T04:06:45.613Z,12.20
2023-04-16T04:07:47.437Z,11.00
2023-04-16T04:08:49.050Z,11.50
2023-04-16T04:09:51.185Z,11.50
2023-04-16T04:10:52.712Z,10.80
2023-04-16T04:11:55.577Z,10.90
2023-04-16T04:12:57.297Z,11.80
2023-04-16T04:13:58.899Z,11.40
2023-04-16T04:15:00.603Z,10.50
2023-04-16T04:16:02.230Z,10.60
2023-04-16T04:17:04.180Z,10.90
2023-04-16T04:18:05.859Z,11.10
2023-04-16T04:19:07.664Z,10.40
2023-04-16T04:20:10.229Z,13.20
2023-04-16T04:21:12.085Z,10.50
2023-04-16T04:22:13.620Z,11.00
2023-04-16T04:23:15.569Z,10.80
2023-04-16T04:24:16.999Z,10.70
2023-04-16T04:25:21.082Z,11.50
2023-04-16T04:26:22.810Z,11.00
2023-04-16T04:27:24.365Z,11.30
2023-04-16T04:28:25.889Z,11.00
2023-04-16T04:29:27.302Z,11.80
2023-04-16T04:30:28.964Z,12.60
2023-04-16T04:31:30.609Z,11.10
2023-04-16T04:32:32.130Z,10.90
2023-04-16T04:33:34.798Z,11.40
2023-04-16T04:34:36.843Z,11.90
2023-04-16T04:35:38.786Z,11.00
2023-04-16T04:36:40.407Z,11.70
2023-04-16T04:37:42.002Z,10.60
2023-04-16T04:38:49.321Z,11.60
2023-04-16T04:39:51.281Z,12.10
2023-04-16T04:40:53.236Z,11.00
2023-04-16T04:41:56.795Z,12.10
2023-04-16T04:42:58.385Z,11.10
2023-04-16T04:43:59.977Z,10.00
2023-04-16T04:45:01.419Z,10.00
2023-04-16T04:46:04.222Z,10.40
2023-04-16T04:47:06.291Z,11.00
2023-04-16T04:48:07.852Z,12.30
2023-04-16T04:49:09.906Z,11.90
2023-04-16T04:50:11.640Z,11.50
2023-04-16T04:51:13.119Z,11.80
2023-04-16T04:52:16.220Z,10.70
2023-04-16T04:53:17.809Z,10.90
2023-04-16T04:54:19.373Z,11.10
2023-04-16T04:55:20.846Z,10.30
2023-04-16T04:56:22.644Z,10.70
2023-04-16T04:57:24.101Z,10.30
2023-04-16T04:58:28.030Z,10.40
2023-04-16T04:59:29.541Z,11.40
2023-04-16T05:00:32.332Z,10.50
2023-04-16T05:01:34.886Z,11.20
2023-04-16T05:02:36.832Z,10.60
2023-04-16T05:03:38.708Z,12.40
2023-04-16T05:04:40.599Z,10.90
2023-04-16T05:05:42.189Z,10.70
2023-04-16T05:06:43.967Z,12.10
2023-04-16T05:07:45.504Z,12.10
2023-04-16T05:08:47.015Z,12.00
2023-04-16T05:09:48.546Z,11.10
2023-04-16T05:10:50.086Z,11.80
2023-04-16T05:11:51.703Z,10.60
2023-04-16T05:12:53.208Z,10.80
2023-04-16T05:13:54.727Z,10.50
2023-04-16T05:14:56.154Z,9.90
2023-04-16T05:15:58.079Z,10.50
2023-04-16T05:16:59.734Z,11.10
2023-04-16T05:18:01.419Z,10.60
2023-04-16T05:19:03.608Z,11.50
2023-04-16T05:20:06.326Z,10.70
2023-04-16T05:21:07.850Z,11.40
2023-04-16T05:22:09.598Z,11.90
2023-04-16T05:23:11.110Z,10.60
2023-04-16T05:24:14.785Z,11.10
2023-04-16T05:25:16.836Z,10.50
2023-04-16T05:26:18.417Z,10.30
2023-04-16T05:27:20.337Z,11.10
2023-04-16T05:28:21.888Z,11.50
2023-04-16T05:29:23.431Z,10.90
2023-04-16T05:30:24.968Z,11.60
2023-04-16T05:31:26.476Z,12.80
2023-04-16T05:32:28.086Z,11.00
2023-04-16T05:33:29.810Z,11.30
2023-04-16T05:34:31.263Z,12.90
2023-04-16T05:35:33.786Z,15.70
2023-04-16T05:36:35.229Z,14.30
2023-04-16T05:37:37.026Z,14.00
2023-04-16T05:38:38.484Z,12.50
2023-04-16T05:39:40.032Z,14.50
2023-04-16T05:40:41.519Z,12.00
2023-04-16T05:41:43.128Z,13.60
2023-04-16T05:42:44.828Z,12.60
2023-04-16T05:43:46.248Z,12.10
2023-04-16T05:44:47.739Z,13.90
2023-04-16T05:45:49.210Z,12.40
2023-04-16T05:46:51.185Z,13.40
2023-04-16T05:47:52.838Z,14.80
2023-04-16T05:48:54.403Z,14.40
2023-04-16T05:49:55.840Z,14.00
2023-04-16T05:50:57.339Z,16.30
2023-04-16T05:51:58.944Z,15.70
2023-04-16T05:53:02.584Z,17.70
2023-04-16T05:54:04.080Z,16.00
2023-04-16T05:55:06.573Z,17.60
2023-04-16T05:56:08.227Z,19.10
2023-04-16T05:57:10.056Z,15.50
2023-04-16T05:58:11.636Z,17.20
2023-04-16T05:59:13.122Z,14.80
2023-04-16T06:00:14.766Z,17.10
2023-04-16T06:01:17.650Z,17.50
2023-04-16T06:02:19.559Z,15.80
2023-04-16T06:03:21.161Z,15.40
2023-04-16T06:04:22.847Z,14.40
2023-04-16T06:05:26.306Z,14.10
2023-04-16T06:06:27.896Z,13.20
2023-04-16T06:07:29.924Z,13.10
2023-04-16T06:08:31.618Z,14.60
2023-04-16T06:09:33.161Z,12.70
2023-04-16T06:10:34.613Z,12.40
2023-04-16T06:11:36.544Z,15.10
2023-04-16T06:12:38.095Z,15.80
2023-04-16T06:13:39.693Z,13.90
2023-04-16T06:14:41.291Z,12.50
2023-04-16T06:15:42.952Z,14.30
2023-04-16T06:16:44.928Z,13.50
2023-04-16T06:17:46.757Z,13.90
2023-04-16T06:18:48.402Z,13.50
2023-04-16T06:19:49.984Z,14.60
2023-04-16T06:20:51.522Z,15.00
2023-04-16T06:21:53.520Z,14.30
2023-04-16T06:22:55.574Z,15.30
2023-04-16T06:23:57.304Z,16.00
2023-04-16T06:24:58.830Z,17.30
2023-04-16T06:26:00.517Z,20.50
2023-04-16T06:27:02.456Z,21.30
2023-04-16T06:28:04.106Z,19.70
2023-04-16T06:29:05.658Z,18.40
2023-04-16T06:30:12.615Z,18.50
2023-04-16T06:31:14.099Z,20.30
2023-04-16T06:32:16.715Z,19.90
2023-04-16T06:33:18.561Z,19.10
2023-04-16T06:34:20.325Z,17.30
2023-04-16T06:35:22.198Z,18.70
2023-04-16T06:36:23.817Z,17.50
2023-04-16T06:37:25.388Z,15.60
2023-04-16T06:38:27.044Z,15.60
2023-04-16T06:39:28.571Z,15.30
2023-04-16T06:40:30.124Z,15.60
2023-04-16T06:41:31.693Z,15.40
2023-04-16T06:42:33.237Z,16.80
2023-04-16T06:43:35.189Z,16.00
2023-04-16T06:44:36.665Z,14.20
2023-04-16T06:45:43.637Z,12.20
2023-04-16T06:46:45.505Z,12.60
2023-04-16T06:47:47.447Z,13.90
2023-04-16T06:48:48.926Z,10.80
2023-04-16T06:49:50.478Z,11.50
2023-04-16T06:50:51.994Z,11.40
2023-04-16T06:51:53.541Z,10.40
2023-04-16T06:52:55.532Z,10.50
2023-04-16T06:53:57.045Z,10.80
2023-04-16T06:54:58.648Z,10.80
2023-04-16T06:56:00.102Z,10.40
2023-04-16T06:57:01.599Z,12.00
2023-04-16T06:58:03.096Z,11.30
2023-04-16T06:59:04.870Z,12.60
2023-04-16T07:00:07.333Z,12.80
2023-04-16T07:01:09.525Z,10.80
2023-04-16T07:02:11.623Z,11.30
2023-04-16T07:03:13.848Z,10.60
2023-04-16T07:04:15.799Z,10.60
2023-04-16T07:05:17.364Z,10.20
2023-04-16T07:06:19.036Z,11.40
2023-04-16T07:07:20.794Z,10.50
2023-04-16T07:08:22.257Z,9.90
2023-04-16T07:09:24.357Z,10.40
2023-04-16T07:10:26.028Z,9.50
2023-04-16T07:11:28.230Z,10.10
2023-04-16T07:12:30.810Z,12.40
2023-04-16T07:13:32.608Z,10.70
2023-04-16T07:14:34.468Z,9.80
2023-04-16T07:15:36.208Z,10.90
2023-04-16T07:16:37.974Z,10.70
2023-04-16T07:17:39.841Z,10.20
2023-04-16T07:18:41.724Z,10.20
2023-04-16T07:19:43.680Z,9.70
2023-04-16T07:20:45.224Z,9.80
2023-04-16T07:21:46.673Z,9.70
2023-04-16T07:22:48.984Z,9.40
2023-04-16T07:23:50.513Z,10.10
2023-04-16T07:24:52.024Z,9.10
2023-04-16T07:25:53.751Z,9.50
2023-04-16T07:26:55.217Z,9.70
2023-04-16T07:27:56.942Z,9.60
2023-04-16T07:28:58.871Z,9.70
2023-04-16T07:30:00.953Z,10.40
2023-04-16T07:31:02.743Z,9.90
2023-04-16T07:32:04.713Z,9.70
2023-04-16T07:33:06.507Z,10.40
2023-04-16T07:34:08.181Z,10.30
2023-04-16T07:35:09.797Z,10.20
2023-04-16T07:36:11.700Z,10.50
2023-04-16T07:37:13.200Z,11.60
2023-04-16T07:38:15.644Z,10.40
2023-04-16T07:39:17.185Z,10.50
2023-04-16T07:40:18.784Z,9.60
2023-04-16T07:41:20.733Z,9.10
2023-04-16T07:42:22.661Z,9.30
2023-04-16T07:43:24.102Z,9.80
2023-04-16T07:44:26.076Z,11.70
2023-04-16T07:45:27.874Z,13.00
2023-04-16T07:46:39.332Z,11.00
2023-04-16T07:47:45.504Z,12.60
2023-04-16T07:48:47.195Z,13.90
2023-04-16T07:49:50.129Z,13.20
2023-04-16T07:50:51.900Z,11.70
2023-04-16T07:51:53.438Z,11.70
2023-04-16T07:52:55.024Z,12.00
2023-04-16T07:53:56.516Z,12.20
2023-04-16T07:54:57.940Z,12.30
2023-04-16T07:55:59.497Z,13.80
2023-04-16T07:57:01.370Z,13.50
2023-04-16T07:58:02.825Z,14.40
2023-04-16T07:59:18.477Z,17.40
2023-04-16T08:00:23.217Z,12.40
2023-04-16T08:01:25.350Z,13.90
2023-04-16T08:02:27.434Z,13.20
2023-04-16T08:03:29.605Z,15.60
2023-04-16T08:04:31.684Z,13.20
2023-04-16T08:05:33.584Z,14.70
2023-04-16T08:06:35.550Z,14.00
2023-04-16T08:07:37.751Z,14.30
2023-04-16T08:08:39.230Z,13.10
2023-04-16T08:09:49.046Z,16.70
2023-04-16T08:10:55.071Z,15.40
2023-04-16T08:11:56.885Z,12.20
2023-04-16T08:13:00.903Z,12.50
2023-04-16T08:14:02.789Z,10.00
2023-04-16T08:15:05.305Z,12.30
2023-04-16T08:16:07.327Z,14.40
2023-04-16T08:17:09.417Z,10.70
2023-04-16T08:18:14.883Z,12.90
2023-04-16T08:19:16.828Z,12.00
2023-04-16T08:20:19.328Z,10.00
2023-04-16T08:21:21.338Z,11.90
2023-04-16T08:22:23.247Z,9.10
2023-04-16T08:23:25.479Z,9.30
2023-04-16T08:24:27.292Z,11.50
2023-04-16T08:25:28.990Z,9.90
2023-04-16T08:26:30.814Z,9.90
2023-04-16T08:27:32.505Z,9.30
2023-04-16T08:28:34.390Z,8.90
2023-04-16T08:29:35.995Z,10.20
2023-04-16T08:30:37.621Z,14.50
2023-04-16T08:31:39.438Z,14.80
2023-04-16T08:32:42.045Z,14.80
2023-04-16T08:33:43.820Z,15.20
2023-04-16T08:34:45.673Z,17.40
2023-04-16T08:35:47.310Z,12.60
2023-04-16T08:36:48.894Z,12.30
2023-04-16T08:37:50.730Z,11.70
2023-04-16T08:38:52.681Z,12.40
2023-04-16T08:39:54.382Z,13.10
2023-04-16T08:41:02.175Z,10.40
2023-04-16T08:42:05.689Z,10.90
2023-04-16T08:43:14.451Z,7.90
2023-04-16T08:44:25.708Z,7.00
2023-04-16T08:45:27.531Z,6.00
2023-04-16T08:46:29.484Z,5.80
2023-04-16T08:47:34.335Z,6.80
2023-04-16T08:48:36.900Z,6.60
2023-04-16T08:49:44.310Z,6.30
2023-04-16T08:50:46.513Z,5.90
2023-04-16T08:51:52.171Z,6.10
2023-04-16T08:52:58.521Z,5.10
2023-04-16T08:54:04.092Z,4.60
2023-04-16T08:55:12.775Z,4.90
2023-04-16T08:56:16.277Z,5.10
2023-04-16T08:57:20.343Z,5.10
2023-04-16T08:58:22.159Z,4.90
2023-04-16T08:59:25.455Z,5.30
2023-04-16T09:00:30.948Z,5.40
2023-04-16T09:01:33.328Z,5.20
2023-04-16T09:02:35.445Z,5.50
2023-04-16T09:03:37.415Z,4.70
2023-04-16T09:04:40.763Z,4.70
2023-04-16T09:05:43.403Z,4.80
2023-04-16T09:06:45.620Z,5.50
2023-04-16T09:07:47.896Z,5.40
2023-04-16T09:08:50.282Z,4.60
2023-04-16T09:09:53.109Z,4.90
2023-04-16T09:10:58.815Z,5.40
2023-04-16T09:12:00.565Z,5.60
2023-04-16T09:13:02.171Z,5.80
2023-04-16T09:14:04.279Z,8.00
2023-04-16T09:15:06.665Z,6.90
2023-04-16T09:16:09.187Z,5.40
2023-04-16T09:17:13.526Z,4.20
2023-04-16T09:18:15.163Z,4.60
2023-04-16T09:19:16.787Z,3.70
2023-04-16T09:20:19.744Z,3.10
2023-04-16T09:21:24.022Z,3.30
2023-04-16T09:22:25.664Z,4.40
2023-04-16T09:23:27.722Z,4.60
2023-04-16T09:24:29.406Z,4.70
2023-04-16T09:25:34.440Z,4.90
2023-04-16T09:26:36.264Z,4.30
2023-04-16T09:27:38.746Z,4.10
2023-04-16T09:28:45.253Z,3.80
2023-04-16T09:29:46.777Z,5.00
2023-04-16T09:30:48.374Z,5.00
2023-04-16T09:32:02.881Z,4.80
2023-04-16T09:33:23.765Z,4.70
2023-04-16T09:34:25.289Z,4.80
2023-04-16T09:35:26.771Z,5.20
2023-04-16T09:36:28.679Z,5.10
2023-04-16T09:37:30.947Z,5.10
2023-04-16T09:38:49.422Z,7.20
2023-04-16T09:39:57.949Z,5.40
2023-04-16T09:41:07.680Z,6.00
2023-04-16T09:42:10.004Z,5.60
2023-04-16T09:43:15.752Z,6.10
2023-04-16T09:44:17.215Z,5.90
2023-04-16T09:45:18.793Z,5.50
2023-04-16T09:46:20.477Z,5.90
2023-04-16T09:47:23.350Z,5.70
2023-04-16T09:48:29.413Z,5.50
2023-04-16T09:49:34.379Z,5.90
2023-04-16T09:50:35.784Z,5.60
2023-04-16T09:51:38.068Z,6.30
2023-04-16T09:52:39.620Z,5.90
2023-04-16T09:53:41.445Z,5.30
2023-04-16T09:54:50.687Z,6.10
2023-04-16T09:55:56.304Z,5.50
2023-04-16T09:57:00.615Z,5.80
2023-04-16T09:58:02.167Z,5.60
2023-04-16T09:59:03.745Z,5.40
2023-04-16T10:00:08.401Z,5.20
2023-04-16T10:01:11.896Z,6.00
2023-04-16T10:02:14.589Z,5.60
2023-04-16T10:03:17.830Z,5.80
2023-04-16T10:04:21.611Z,5.80
2023-04-16T10:05:25.626Z,5.50
2023-04-16T10:06:28.822Z,5.70
2023-04-16T10:07:34.922Z,5.80
2023-04-16T10:08:36.535Z,6.00
2023-04-16T10:09:38.702Z,6.30
2023-04-16T10:10:40.924Z,5.50
2023-04-16T10:11:42.537Z,6.20
2023-04-16T10:12:44.094Z,5.90
2023-04-16T10:13:45.764Z,5.50
2023-04-16T10:14:48.938Z,5.60
2023-04-16T10:15:51.855Z,5.70
2023-04-16T10:16:55.447Z,5.50
2023-04-16T10:17:57.541Z,6.70
2023-04-16T10:18:59.565Z,6.40
2023-04-16T10:20:02.621Z,5.10
2023-04-16T10:21:05.592Z,5.20
2023-04-16T10:22:08.704Z,5.00
2023-04-16T10:23:11.670Z,4.80
2023-04-16T10:24:16.062Z,4.80
2023-04-16T10:25:17.981Z,4.70
2023-04-16T10:26:20.702Z,4.40
2023-04-16T10:27:22.271Z,4.60
2023-04-16T10:28:24.482Z,4.50
2023-04-16T10:29:31.053Z,5.20
2023-04-16T10:30:33.250Z,5.10
2023-04-16T10:31:37.988Z,4.70
2023-04-16T10:32:40.934Z,5.50
2023-04-16T10:33:43.655Z,4.10
2023-04-16T10:34:45.718Z,4.50
2023-04-16T10:35:57.613Z,4.70
2023-04-16T10:37:06.657Z,5.00
2023-04-16T10:38:27.623Z,4.10
2023-04-16T10:39:29.179Z,4.40
2023-04-16T10:40:30.886Z,4.40
2023-04-16T10:41:33.724Z,5.20
2023-04-16T10:42:37.486Z,4.80
2023-04-16T10:43:47.411Z,4.30
2023-04-16T10:44:49.016Z,4.00
2023-04-16T10:45:50.793Z,4.00
2023-04-16T10:46:54.777Z,4.10
2023-04-16T10:47:58.057Z,4.30
2023-04-16T10:49:01.613Z,5.10
2023-04-16T10:50:15.590Z,4.70
2023-04-16T10:51:27.974Z,5.10
2023-04-16T10:52:29.418Z,5.00
2023-04-16T10:53:30.838Z,7.10
2023-04-16T10:54:35.759Z,7.00
2023-04-16T10:55:40.164Z,5.60
2023-04-16T10:56:45.066Z,5.30
2023-04-16T10:57:49.168Z,4.70
2023-04-16T10:58:53.234Z,4.70
2023-04-16T10:59:54.699Z,5.40
2023-04-16T11:01:00.558Z,4.40
2023-04-16T11:02:08.682Z,4.50
2023-04-16T11:03:11.101Z,4.20
2023-04-16T11:04:25.093Z,4.40
2023-04-16T11:05:46.282Z,4.50
2023-04-16T11:07:03.624Z,4.80
2023-04-16T11:08:13.781Z,4.30
2023-04-16T11:09:50.948Z,4.50
2023-04-16T11:10:53.665Z,4.40
2023-04-16T11:11:55.714Z,4.50
2023-04-16T11:12:57.381Z,4.30
2023-04-16T11:14:00.584Z,4.10
2023-04-16T11:15:12.762Z,4.70
2023-04-16T11:16:15.815Z,4.20
2023-04-16T11:17:18.638Z,4.30
2023-04-16T11:18:20.133Z,4.00
2023-04-16T11:19:22.114Z,4.20
2023-04-16T11:20:26.021Z,3.90
2023-04-16T11:21:28.075Z,4.50
2023-04-16T11:22:29.663Z,4.40
2023-04-16T11:23:45.049Z,4.60
2023-04-16T11:24:47.239Z,4.50
2023-04-16T11:25:55.196Z,5.30
2023-04-16T12:11:16.110Z,6.90
2023-04-16T12:12:31.627Z,10.30
2023-04-16T12:13:39.126Z,20.00
2023-04-16T12:14:49.686Z,10.40
2023-04-16T12:15:53.007Z,8.10
2023-04-16T12:16:55.253Z,8.40
2023-04-16T12:18:07.508Z,8.10
2023-04-16T12:19:11.914Z,8.00
2023-04-16T12:20:15.132Z,8.90
2023-04-16T12:21:16.930Z,7.90
2023-04-16T12:22:36.059Z,8.10
2023-04-16T12:23:38.736Z,7.90
2023-04-16T12:24:40.144Z,7.80
2023-04-16T12:25:42.411Z,7.70
2023-04-16T12:26:46.548Z,8.60
2023-04-16T12:27:55.269Z,9.60
2023-04-16T12:29:14.150Z,9.30
2023-04-16T12:30:17.511Z,11.00
2023-04-16T12:31:36.606Z,10.30
2023-04-16T12:32:41.061Z,9.30
2023-04-16T12:33:42.485Z,9.60
2023-04-16T12:34:50.980Z,10.50
2023-04-16T12:35:52.483Z,9.80
2023-04-16T12:37:08.885Z,10.10
2023-04-16T12:38:11.356Z,10.40
2023-04-16T12:39:14.557Z,10.20
2023-04-16T12:40:16.253Z,9.90
2023-04-16T12:41:17.711Z,9.30
2023-04-16T12:42:20.741Z,9.60
2023-04-16T12:43:22.807Z,9.50
2023-04-16T12:44:27.293Z,9.40
2023-04-16T12:45:28.933Z,8.70
2023-04-16T12:46:30.728Z,8.70
2023-04-16T12:47:32.598Z,8.80
2023-04-16T12:48:34.100Z,9.00
2023-04-16T12:49:37.720Z,9.30
2023-04-16T12:50:39.551Z,8.30
2023-04-16T12:51:41.541Z,8.30
2023-04-16T12:52:43.199Z,7.90
2023-04-16T12:53:44.694Z,7.90
2023-04-16T12:54:46.383Z,7.20
2023-04-16T12:55:47.964Z,7.10
2023-04-16T12:56:49.493Z,6.80
2023-04-16T12:57:54.373Z,7.50
2023-04-16T12:58:55.918Z,7.20
2023-04-16T12:59:58.990Z,6.90
2023-04-16T13:01:00.394Z,7.10
2023-04-16T13:02:02.202Z,7.30
2023-04-16T13:03:04.092Z,8.00
2023-04-16T13:04:06.846Z,7.80
2023-04-16T13:05:09.245Z,6.40
2023-04-16T13:06:12.300Z,6.40
2023-04-16T13:07:13.751Z,7.10
2023-04-16T13:08:15.869Z,7.30
2023-04-16T13:09:19.589Z,7.40
2023-04-16T13:10:21.568Z,7.30
2023-04-16T13:11:23.171Z,8.20
2023-04-16T13:12:24.677Z,8.70
2023-04-16T13:13:26.142Z,8.50
2023-04-16T13:14:27.611Z,8.50
2023-04-16T13:15:29.367Z,8.60
2023-04-16T13:16:30.811Z,8.70
2023-04-16T13:17:32.454Z,8.10
2023-04-16T13:18:39.525Z,8.40
2023-04-16T13:19:41.005Z,9.20
2023-04-16T13:20:43.167Z,8.30
2023-04-16T13:21:44.802Z,8.10
2023-04-16T13:22:46.423Z,8.40
2023-04-16T13:23:48.144Z,7.40
2023-04-16T13:24:49.760Z,7.60
2023-04-16T13:25:51.499Z,7.30
2023-04-16T13:26:53.455Z,7.50
2023-04-16T13:27:55.026Z,7.80
2023-04-16T13:28:57.054Z,7.20
2023-04-16T13:29:58.762Z,7.10
2023-04-16T13:31:04.283Z,7.10
2023-04-16T13:32:07.529Z,7.00
2023-04-16T13:33:10.267Z,7.80
2023-04-16T13:34:12.154Z,8.40
2023-04-16T13:35:13.569Z,8.20
2023-04-16T13:36:15.436Z,7.90
2023-04-16T13:37:17.102Z,8.00
2023-04-16T13:38:18.568Z,8.10
2023-04-16T13:39:20.493Z,8.00
2023-04-16T13:40:21.972Z,9.10
2023-04-16T13:41:23.970Z,9.10
2023-04-16T13:42:26.272Z,9.90
2023-04-16T13:43:27.799Z,9.10
2023-04-16T13:44:29.373Z,8.90
2023-04-16T13:45:31.128Z,9.00
2023-04-16T13:46:33.131Z,8.40
2023-04-16T13:47:36.028Z,8.80
2023-04-16T13:48:38.382Z,8.90
2023-04-16T13:49:40.043Z,9.00
2023-04-16T13:50:41.836Z,9.60
2023-04-16T13:51:46.737Z,8.60
2023-04-16T13:52:48.798Z,9.60
2023-04-16T13:53:50.321Z,9.50
2023-04-16T13:54:51.833Z,9.50
2023-04-16T13:55:56.664Z,10.40
2023-04-16T13:56:58.871Z,9.20
2023-04-16T13:58:00.726Z,9.80
2023-04-16T13:59:02.616Z,9.50
2023-04-16T14:00:04.847Z,10.80
2023-04-16T14:01:06.895Z,9.50
2023-04-16T14:02:09.993Z,9.70
2023-04-16T14:03:12.019Z,9.80
2023-04-16T14:04:13.704Z,8.60
2023-04-16T14:05:15.367Z,9.50
2023-04-16T14:06:17.502Z,9.30
2023-04-16T14:07:21.876Z,8.90
2023-04-16T14:08:23.323Z,8.80
2023-04-16T14:09:24.850Z,9.10
2023-04-16T14:10:26.353Z,8.00
2023-04-16T14:11:28.007Z,9.50
2023-04-16T14:12:30.988Z,9.60
2023-04-16T14:13:32.581Z,9.40
2023-04-16T14:14:34.778Z,9.30
2023-04-16T14:15:36.311Z,9.20
2023-04-16T14:16:37.779Z,8.70
2023-04-16T14:17:39.776Z,9.10
2023-04-16T14:18:41.771Z,9.00
2023-04-16T14:19:43.283Z,9.30
2023-04-16T14:20:44.960Z,10.80
2023-04-16T14:21:46.558Z,13.80
2023-04-16T14:22:48.320Z,11.60
2023-04-16T14:23:49.785Z,9.80
2023-04-16T14:24:51.364Z,8.60
2023-04-16T14:25:53.144Z,7.80
2023-04-16T14:26:54.840Z,7.80
2023-04-16T14:27:56.409Z,7.30
2023-04-16T14:28:57.886Z,8.00
2023-04-16T14:30:00.005Z,7.30
2023-04-16T14:31:01.450Z,7.80